sensor_id;sensor_type;location;lat;lon;timestamp;temperature;humidity
8408;DHT22;4241;48.452;9.216;2023-07-29T00:03:36;17.70;99.90
8408;DHT22;4241;48.452;9.216;2023-07-29T00:06:02;17.70;99.90
8408;DHT22;4241;48.452;9.216;2023-07-29T00:08:29;17.50;99.90
8408;DHT22;4241;48.452;9.216;2023-07-29T00:10:56;17.50;99.90
8408;DHT22;4241;48.452;9.216;2023-07-29T00:13:24;17.70;99.90
8408;DHT22;4241;48.452;9.216;2023-07-29T00:15:53;17.60;99.90
8408;DHT22;4241;48.452;9.216;2023-07-29T00:18:21;17.60;99.90
8408;DHT22;4241;48.452;9.216;2023-07-29T00:20:47;17.70;99.90
8408;DHT22;4241;48.452;9.216;2023-07-29T00:30:38;17.70;99.90
8408;DHT22;4241;48.452;9.216;2023-07-29T00:33:05;17.50;99.90
8408;DHT22;4241;48.452;9.216;2023-07-29T00:37:58;17.60;99.90
8408;DHT22;4241;48.452;9.216;2023-07-29T00:40:30;17.60;99.90
8408;DHT22;4241;48.452;9.216;2023-07-29T00:43:01;17.50;99.90
8408;DHT22;4241;48.452;9.216;2023-07-29T00:45:29;17.50;99.90
8408;DHT22;4241;48.452;9.216;2023-07-29T00:47:57;17.60;99.90
8408;DHT22;4241;48.452;9.216;2023-07-29T00:52:53;17.50;99.90
8408;DHT22;4241;48.452;9.216;2023-07-29T00:55:20;17.50;99.90
8408;DHT22;4241;48.452;9.216;2023-07-29T00:57:48;17.70;99.90
8408;DHT22;4241;48.452;9.216;2023-07-29T01:00:17;17.50;99.90
8408;DHT22;4241;48.452;9.216;2023-07-29T01:02:44;17.60;99.90
8408;DHT22;4241;48.452;9.216;2023-07-29T01:05:14;17.60;99.90
8408;DHT22;4241;48.452;9.216;2023-07-29T01:07:47;17.70;99.90
8408;DHT22;4241;48.452;9.216;2023-07-29T01:10:22;17.70;99.90
8408;DHT22;4241;48.452;9.216;2023-07-29T01:12:59;17.70;99.90
8408;DHT22;4241;48.452;9.216;2023-07-29T01:15:32;17.60;99.90
8408;DHT22;4241;48.452;9.216;2023-07-29T01:18:04;17.50;99.90
8408;DHT22;4241;48.452;9.216;2023-07-29T01:20:37;17.60;99.90
8408;DHT22;4241;48.452;9.216;2023-07-29T01:23:05;17.60;99.90
8408;DHT22;4241;48.452;9.216;2023-07-29T01:25:33;17.60;99.90
8408;DHT22;4241;48.452;9.216;2023-07-29T01:28:00;17.60;99.90
8408;DHT22;4241;48.452;9.216;2023-07-29T01:30:31;17.50;99.90
8408;DHT22;4241;48.452;9.216;2023-07-29T01:33:06;17.60;99.90
8408;DHT22;4241;48.452;9.216;2023-07-29T01:35:40;17.70;99.90
8408;DHT22;4241;48.452;9.216;2023-07-29T01:38:16;17.60;99.90
8408;DHT22;4241;48.452;9.216;2023-07-29T01:40:46;17.60;99.90
8408;DHT22;4241;48.452;9.216;2023-07-29T01:45:41;17.60;99.90
8408;DHT22;4241;48.452;9.216;2023-07-29T01:48:08;17.70;99.90
8408;DHT22;4241;48.452;9.216;2023-07-29T01:50:34;17.50;99.90
8408;DHT22;4241;48.452;9.216;2023-07-29T01:53:01;17.70;99.90
8408;DHT22;4241;48.452;9.216;2023-07-29T01:55:29;17.60;99.90
8408;DHT22;4241;48.452;9.216;2023-07-29T01:57:57;17.60;99.90
8408;DHT22;4241;48.452;9.216;2023-07-29T02:00:24;17.50;99.90
8408;DHT22;4241;48.452;9.216;2023-07-29T02:02:51;17.50;99.90
8408;DHT22;4241;48.452;9.216;2023-07-29T02:07:45;17.60;99.90
8408;DHT22;4241;48.452;9.216;2023-07-29T02:10:12;17.50;99.90
8408;DHT22;4241;48.452;9.216;2023-07-29T02:12:39;17.50;99.90
8408;DHT22;4241;48.452;9.216;2023-07-29T02:15:08;17.50;99.90
8408;DHT22;4241;48.452;9.216;2023-07-29T02:20:03;17.50;99.90
8408;DHT22;4241;48.452;9.216;2023-07-29T02:22:30;17.40;99.90
8408;DHT22;4241;48.452;9.216;2023-07-29T02:24:57;17.40;99.90
8408;DHT22;4241;48.452;9.216;2023-07-29T02:29:52;17.40;99.90
8408;DHT22;4241;48.452;9.216;2023-07-29T02:32:20;17.30;99.90
8408;DHT22;4241;48.452;9.216;2023-07-29T02:34:48;17.30;99.90
8408;DHT22;4241;48.452;9.216;2023-07-29T02:39:42;17.30;99.90
8408;DHT22;4241;48.452;9.216;2023-07-29T02:44:36;17.40;99.90
8408;DHT22;4241;48.452;9.216;2023-07-29T02:47:03;17.30;99.90
8408;DHT22;4241;48.452;9.216;2023-07-29T02:49:31;17.40;99.90
8408;DHT22;4241;48.452;9.216;2023-07-29T02:51:58;17.40;99.90
8408;DHT22;4241;48.452;9.216;2023-07-29T02:56:52;17.30;99.90
8408;DHT22;4241;48.452;9.216;2023-07-29T02:59:19;17.30;99.90
8408;DHT22;4241;48.452;9.216;2023-07-29T03:01:46;17.30;99.90
8408;DHT22;4241;48.452;9.216;2023-07-29T03:06:41;17.30;99.90
8408;DHT22;4241;48.452;9.216;2023-07-29T03:09:08;17.30;99.90
8408;DHT22;4241;48.452;9.216;2023-07-29T03:18:56;17.40;99.90
8408;DHT22;4241;48.452;9.216;2023-07-29T03:23:54;17.40;99.90
8408;DHT22;4241;48.452;9.216;2023-07-29T03:26:20;17.50;99.90
8408;DHT22;4241;48.452;9.216;2023-07-29T03:28:47;17.50;99.90
8408;DHT22;4241;48.452;9.216;2023-07-29T03:33:41;17.40;99.90
8408;DHT22;4241;48.452;9.216;2023-07-29T03:41:06;17.40;99.90
8408;DHT22;4241;48.452;9.216;2023-07-29T03:46:01;17.40;99.90
8408;DHT22;4241;48.452;9.216;2023-07-29T03:50:56;17.50;99.90
8408;DHT22;4241;48.452;9.216;2023-07-29T03:53:23;17.50;99.90
8408;DHT22;4241;48.452;9.216;2023-07-29T03:55:50;17.50;99.90
8408;DHT22;4241;48.452;9.216;2023-07-29T03:58:18;17.50;99.90
8408;DHT22;4241;48.452;9.216;2023-07-29T04:00:48;17.60;99.90
8408;DHT22;4241;48.452;9.216;2023-07-29T04:05:42;17.50;99.90
8408;DHT22;4241;48.452;9.216;2023-07-29T04:08:09;17.60;99.90
8408;DHT22;4241;48.452;9.216;2023-07-29T04:10:36;17.60;99.90
8408;DHT22;4241;48.452;9.216;2023-07-29T04:13:03;17.60;99.90
8408;DHT22;4241;48.452;9.216;2023-07-29T04:15:31;17.60;99.90
8408;DHT22;4241;48.452;9.216;2023-07-29T04:22:53;17.60;99.90
8408;DHT22;4241;48.452;9.216;2023-07-29T04:25:19;17.70;99.90
8408;DHT22;4241;48.452;9.216;2023-07-29T04:27:46;17.60;99.90
8408;DHT22;4241;48.452;9.216;2023-07-29T04:30:13;17.70;99.90
8408;DHT22;4241;48.452;9.216;2023-07-29T04:32:41;17.70;99.90
8408;DHT22;4241;48.452;9.216;2023-07-29T04:37:37;17.70;99.90
8408;DHT22;4241;48.452;9.216;2023-07-29T04:40:05;17.80;99.90
8408;DHT22;4241;48.452;9.216;2023-07-29T04:42:32;17.80;99.90
8408;DHT22;4241;48.452;9.216;2023-07-29T04:44:59;18.00;99.90
8408;DHT22;4241;48.452;9.216;2023-07-29T04:47:26;18.10;99.90
8408;DHT22;4241;48.452;9.216;2023-07-29T04:49:54;18.20;99.90
8408;DHT22;4241;48.452;9.216;2023-07-29T04:54:48;18.30;99.90
8408;DHT22;4241;48.452;9.216;2023-07-29T04:57:15;18.30;99.90
8408;DHT22;4241;48.452;9.216;2023-07-29T04:59:41;18.40;99.90
8408;DHT22;4241;48.452;9.216;2023-07-29T05:02:08;18.50;99.90
8408;DHT22;4241;48.452;9.216;2023-07-29T05:04:35;18.60;99.90
8408;DHT22;4241;48.452;9.216;2023-07-29T05:07:04;18.50;99.90
8408;DHT22;4241;48.452;9.216;2023-07-29T05:11:58;18.80;99.90
8408;DHT22;4241;48.452;9.216;2023-07-29T05:14:25;18.80;99.90
8408;DHT22;4241;48.452;9.216;2023-07-29T05:24:14;18.60;99.90
8408;DHT22;4241;48.452;9.216;2023-07-29T05:26:41;18.50;99.90
8408;DHT22;4241;48.452;9.216;2023-07-29T05:31:35;18.50;99.90
8408;DHT22;4241;48.452;9.216;2023-07-29T05:34:01;18.30;99.90
8408;DHT22;4241;48.452;9.216;2023-07-29T05:38:56;18.40;99.90
8408;DHT22;4241;48.452;9.216;2023-07-29T05:41:24;18.40;99.90
8408;DHT22;4241;48.452;9.216;2023-07-29T05:46:18;18.40;99.90
8408;DHT22;4241;48.452;9.216;2023-07-29T05:48:45;18.60;99.90
8408;DHT22;4241;48.452;9.216;2023-07-29T05:51:12;18.70;99.90
8408;DHT22;4241;48.452;9.216;2023-07-29T05:58:34;18.90;99.90
8408;DHT22;4241;48.452;9.216;2023-07-29T06:08:22;19.30;99.90
8408;DHT22;4241;48.452;9.216;2023-07-29T06:15:45;19.30;99.90
8408;DHT22;4241;48.452;9.216;2023-07-29T06:18:11;19.40;99.90
8408;DHT22;4241;48.452;9.216;2023-07-29T06:20:38;19.40;99.90
8408;DHT22;4241;48.452;9.216;2023-07-29T06:27:59;19.70;99.90
8408;DHT22;4241;48.452;9.216;2023-07-29T06:32:54;19.80;99.90
8408;DHT22;4241;48.452;9.216;2023-07-29T06:35:21;19.80;99.90
8408;DHT22;4241;48.452;9.216;2023-07-29T06:45:10;20.10;99.90
8408;DHT22;4241;48.452;9.216;2023-07-29T06:50:06;20.20;99.90
8408;DHT22;4241;48.452;9.216;2023-07-29T06:52:33;20.20;99.90
8408;DHT22;4241;48.452;9.216;2023-07-29T06:54:59;20.30;99.90
8408;DHT22;4241;48.452;9.216;2023-07-29T06:57:26;20.30;99.90
8408;DHT22;4241;48.452;9.216;2023-07-29T07:02:20;20.20;99.90
8408;DHT22;4241;48.452;9.216;2023-07-29T07:04:47;20.20;99.90
8408;DHT22;4241;48.452;9.216;2023-07-29T07:07:15;20.60;99.90
8408;DHT22;4241;48.452;9.216;2023-07-29T07:09:42;19.80;99.90
8408;DHT22;4241;48.452;9.216;2023-07-29T07:12:09;19.70;99.90
8408;DHT22;4241;48.452;9.216;2023-07-29T07:19:33;19.30;99.90
8408;DHT22;4241;48.452;9.216;2023-07-29T07:22:00;19.30;99.90
8408;DHT22;4241;48.452;9.216;2023-07-29T07:24:28;19.30;99.90
8408;DHT22;4241;48.452;9.216;2023-07-29T07:26:55;19.10;99.90
8408;DHT22;4241;48.452;9.216;2023-07-29T07:29:21;19.20;99.90
8408;DHT22;4241;48.452;9.216;2023-07-29T07:31:50;19.20;99.90
8408;DHT22;4241;48.452;9.216;2023-07-29T07:34:17;19.10;99.90
8408;DHT22;4241;48.452;9.216;2023-07-29T07:36:44;19.20;99.90
8408;DHT22;4241;48.452;9.216;2023-07-29T07:39:11;19.20;99.90
8408;DHT22;4241;48.452;9.216;2023-07-29T07:41:40;19.20;99.90
8408;DHT22;4241;48.452;9.216;2023-07-29T07:44:07;19.40;99.90
8408;DHT22;4241;48.452;9.216;2023-07-29T07:49:01;19.30;99.90
8408;DHT22;4241;48.452;9.216;2023-07-29T07:51:27;19.40;99.90
8408;DHT22;4241;48.452;9.216;2023-07-29T07:53:54;19.40;99.90
8408;DHT22;4241;48.452;9.216;2023-07-29T07:56:21;19.50;99.90
8408;DHT22;4241;48.452;9.216;2023-07-29T07:58:49;19.50;99.90
8408;DHT22;4241;48.452;9.216;2023-07-29T08:01:16;19.50;99.90
8408;DHT22;4241;48.452;9.216;2023-07-29T08:06:10;19.50;99.90
8408;DHT22;4241;48.452;9.216;2023-07-29T08:08:37;19.50;99.90
8408;DHT22;4241;48.452;9.216;2023-07-29T08:11:03;19.50;99.90
8408;DHT22;4241;48.452;9.216;2023-07-29T08:13:30;19.40;99.90
8408;DHT22;4241;48.452;9.216;2023-07-29T08:15:58;19.40;99.90
8408;DHT22;4241;48.452;9.216;2023-07-29T08:18:25;19.50;99.90
8408;DHT22;4241;48.452;9.216;2023-07-29T08:20:53;19.60;99.90
8408;DHT22;4241;48.452;9.216;2023-07-29T08:23:21;19.60;99.90
8408;DHT22;4241;48.452;9.216;2023-07-29T08:25:52;19.70;99.90
8408;DHT22;4241;48.452;9.216;2023-07-29T08:28:19;19.70;99.90
8408;DHT22;4241;48.452;9.216;2023-07-29T08:30:46;19.80;99.90
8408;DHT22;4241;48.452;9.216;2023-07-29T08:33:14;19.70;99.90
8408;DHT22;4241;48.452;9.216;2023-07-29T08:38:10;20.10;99.90
8408;DHT22;4241;48.452;9.216;2023-07-29T08:40:40;20.20;99.90
8408;DHT22;4241;48.452;9.216;2023-07-29T08:43:09;20.40;99.90
8408;DHT22;4241;48.452;9.216;2023-07-29T08:45:38;20.40;99.90
8408;DHT22;4241;48.452;9.216;2023-07-29T08:48:08;20.50;99.90
8408;DHT22;4241;48.452;9.216;2023-07-29T08:50:37;20.60;99.90
8408;DHT22;4241;48.452;9.216;2023-07-29T08:53:04;20.80;99.90
8408;DHT22;4241;48.452;9.216;2023-07-29T08:55:32;20.80;99.90
8408;DHT22;4241;48.452;9.216;2023-07-29T08:57:59;20.90;99.90
8408;DHT22;4241;48.452;9.216;2023-07-29T09:00:27;21.10;99.90
8408;DHT22;4241;48.452;9.216;2023-07-29T09:05:21;21.70;99.90
8408;DHT22;4241;48.452;9.216;2023-07-29T09:07:50;22.00;99.90
8408;DHT22;4241;48.452;9.216;2023-07-29T09:10:21;22.20;99.90
8408;DHT22;4241;48.452;9.216;2023-07-29T09:12:48;22.40;99.90
8408;DHT22;4241;48.452;9.216;2023-07-29T09:15:26;22.60;99.90
8408;DHT22;4241;48.452;9.216;2023-07-29T09:20:24;23.00;99.90
8408;DHT22;4241;48.452;9.216;2023-07-29T09:22:53;23.00;99.90
8408;DHT22;4241;48.452;9.216;2023-07-29T09:25:23;23.00;99.90
8408;DHT22;4241;48.452;9.216;2023-07-29T09:27:50;23.10;99.90
8408;DHT22;4241;48.452;9.216;2023-07-29T09:30:17;23.10;99.90
8408;DHT22;4241;48.452;9.216;2023-07-29T09:32:44;23.30;99.90
8408;DHT22;4241;48.452;9.216;2023-07-29T09:35:11;23.10;99.90
8408;DHT22;4241;48.452;9.216;2023-07-29T09:37:38;23.30;99.90
8408;DHT22;4241;48.452;9.216;2023-07-29T09:40:14;23.40;99.90
8408;DHT22;4241;48.452;9.216;2023-07-29T09:42:47;23.40;99.90
8408;DHT22;4241;48.452;9.216;2023-07-29T09:45:20;23.70;99.90
8408;DHT22;4241;48.452;9.216;2023-07-29T09:47:47;23.80;99.90
8408;DHT22;4241;48.452;9.216;2023-07-29T09:50:15;23.70;99.90
8408;DHT22;4241;48.452;9.216;2023-07-29T09:52:42;23.80;99.90
8408;DHT22;4241;48.452;9.216;2023-07-29T09:55:12;23.80;99.90
8408;DHT22;4241;48.452;9.216;2023-07-29T09:57:39;23.90;99.90
8408;DHT22;4241;48.452;9.216;2023-07-29T10:00:07;24.10;99.90
8408;DHT22;4241;48.452;9.216;2023-07-29T10:02:37;24.30;99.90
8408;DHT22;4241;48.452;9.216;2023-07-29T10:05:05;24.50;99.90
8408;DHT22;4241;48.452;9.216;2023-07-29T10:07:33;24.80;99.90
8408;DHT22;4241;48.452;9.216;2023-07-29T10:10:02;24.80;99.90
8408;DHT22;4241;48.452;9.216;2023-07-29T10:12:33;24.90;99.90
8408;DHT22;4241;48.452;9.216;2023-07-29T10:15:01;24.90;99.90
8408;DHT22;4241;48.452;9.216;2023-07-29T10:17:29;24.30;99.90
8408;DHT22;4241;48.452;9.216;2023-07-29T10:19:57;24.10;99.90
8408;DHT22;4241;48.452;9.216;2023-07-29T10:22:28;24.20;99.90
8408;DHT22;4241;48.452;9.216;2023-07-29T10:25:04;24.10;99.90
8408;DHT22;4241;48.452;9.216;2023-07-29T10:27:38;24.00;99.90
8408;DHT22;4241;48.452;9.216;2023-07-29T10:30:10;24.20;99.90
8408;DHT22;4241;48.452;9.216;2023-07-29T10:32:38;24.40;99.90
8408;DHT22;4241;48.452;9.216;2023-07-29T10:35:08;24.50;99.90
8408;DHT22;4241;48.452;9.216;2023-07-29T10:37:35;24.60;99.90
8408;DHT22;4241;48.452;9.216;2023-07-29T10:40:06;24.70;99.90
8408;DHT22;4241;48.452;9.216;2023-07-29T10:42:35;24.80;99.90
8408;DHT22;4241;48.452;9.216;2023-07-29T10:45:18;24.90;99.90
8408;DHT22;4241;48.452;9.216;2023-07-29T10:47:44;25.30;99.90
8408;DHT22;4241;48.452;9.216;2023-07-29T10:50:18;25.30;99.90
8408;DHT22;4241;48.452;9.216;2023-07-29T10:52:49;25.60;99.90
8408;DHT22;4241;48.452;9.216;2023-07-29T10:55:25;25.70;99.90
8408;DHT22;4241;48.452;9.216;2023-07-29T10:58:04;26.00;99.90
8408;DHT22;4241;48.452;9.216;2023-07-29T11:00:32;26.10;99.90
8408;DHT22;4241;48.452;9.216;2023-07-29T11:03:00;26.10;99.90
8408;DHT22;4241;48.452;9.216;2023-07-29T11:05:45;26.10;99.90
8408;DHT22;4241;48.452;9.216;2023-07-29T11:08:17;26.10;99.90
8408;DHT22;4241;48.452;9.216;2023-07-29T11:10:44;26.10;99.90
8408;DHT22;4241;48.452;9.216;2023-07-29T11:13:26;25.20;99.90
8408;DHT22;4241;48.452;9.216;2023-07-29T11:15:53;25.10;99.90
8408;DHT22;4241;48.452;9.216;2023-07-29T11:18:21;24.90;99.90
8408;DHT22;4241;48.452;9.216;2023-07-29T11:20:48;24.90;99.90
8408;DHT22;4241;48.452;9.216;2023-07-29T11:23:15;25.00;99.90
8408;DHT22;4241;48.452;9.216;2023-07-29T11:28:09;24.90;99.90
8408;DHT22;4241;48.452;9.216;2023-07-29T11:30:40;24.50;99.90
8408;DHT22;4241;48.452;9.216;2023-07-29T11:33:07;24.30;99.90
8408;DHT22;4241;48.452;9.216;2023-07-29T11:35:33;24.30;99.90
8408;DHT22;4241;48.452;9.216;2023-07-29T11:38:00;24.10;99.90
8408;DHT22;4241;48.452;9.216;2023-07-29T11:40:27;24.00;99.90
8408;DHT22;4241;48.452;9.216;2023-07-29T11:42:54;23.90;99.90
8408;DHT22;4241;48.452;9.216;2023-07-29T11:45:22;23.70;99.90
8408;DHT22;4241;48.452;9.216;2023-07-29T11:47:51;23.80;99.90
8408;DHT22;4241;48.452;9.216;2023-07-29T11:50:17;23.80;99.90
8408;DHT22;4241;48.452;9.216;2023-07-29T11:52:46;23.90;99.90
8408;DHT22;4241;48.452;9.216;2023-07-29T11:55:14;23.90;99.90
8408;DHT22;4241;48.452;9.216;2023-07-29T11:57:42;23.90;99.90
8408;DHT22;4241;48.452;9.216;2023-07-29T12:00:10;23.70;99.90
8408;DHT22;4241;48.452;9.216;2023-07-29T12:02:39;23.40;99.90
8408;DHT22;4241;48.452;9.216;2023-07-29T12:05:08;23.20;99.90
8408;DHT22;4241;48.452;9.216;2023-07-29T12:07:36;23.50;99.90
8408;DHT22;4241;48.452;9.216;2023-07-29T12:10:05;23.50;99.90
8408;DHT22;4241;48.452;9.216;2023-07-29T12:12:33;23.70;99.90
8408;DHT22;4241;48.452;9.216;2023-07-29T12:17:27;23.90;99.90
8408;DHT22;4241;48.452;9.216;2023-07-29T12:19:55;24.10;99.90
8408;DHT22;4241;48.452;9.216;2023-07-29T12:22:24;24.40;99.90
8408;DHT22;4241;48.452;9.216;2023-07-29T12:24:51;24.70;99.90
8408;DHT22;4241;48.452;9.216;2023-07-29T12:27:21;24.80;99.90
8408;DHT22;4241;48.452;9.216;2023-07-29T12:29:54;24.90;99.90
8408;DHT22;4241;48.452;9.216;2023-07-29T12:32:25;25.20;99.90
8408;DHT22;4241;48.452;9.216;2023-07-29T12:34:53;25.20;99.90
8408;DHT22;4241;48.452;9.216;2023-07-29T12:37:20;25.20;99.90
8408;DHT22;4241;48.452;9.216;2023-07-29T12:39:50;25.00;99.90
8408;DHT22;4241;48.452;9.216;2023-07-29T12:42:17;24.70;99.90
8408;DHT22;4241;48.452;9.216;2023-07-29T12:44:44;24.80;99.90
8408;DHT22;4241;48.452;9.216;2023-07-29T12:49:38;24.70;99.90
8408;DHT22;4241;48.452;9.216;2023-07-29T12:52:05;24.70;99.90
8408;DHT22;4241;48.452;9.216;2023-07-29T12:54:32;24.90;99.90
8408;DHT22;4241;48.452;9.216;2023-07-29T12:57:00;25.10;99.90
8408;DHT22;4241;48.452;9.216;2023-07-29T12:59:27;25.10;99.90
8408;DHT22;4241;48.452;9.216;2023-07-29T13:01:54;25.40;99.90
8408;DHT22;4241;48.452;9.216;2023-07-29T13:04:20;25.60;99.90
8408;DHT22;4241;48.452;9.216;2023-07-29T13:06:47;25.60;99.90
8408;DHT22;4241;48.452;9.216;2023-07-29T13:11:41;25.50;99.90
8408;DHT22;4241;48.452;9.216;2023-07-29T13:14:09;25.50;99.90
8408;DHT22;4241;48.452;9.216;2023-07-29T13:16:36;25.60;99.90
8408;DHT22;4241;48.452;9.216;2023-07-29T13:19:04;25.70;99.90
8408;DHT22;4241;48.452;9.216;2023-07-29T13:21:31;25.70;99.90
8408;DHT22;4241;48.452;9.216;2023-07-29T13:23:57;25.70;99.90
8408;DHT22;4241;48.452;9.216;2023-07-29T13:26:24;25.80;99.90
8408;DHT22;4241;48.452;9.216;2023-07-29T13:31:20;25.50;99.90
8408;DHT22;4241;48.452;9.216;2023-07-29T13:33:47;25.60;99.90
8408;DHT22;4241;48.452;9.216;2023-07-29T13:36:13;25.50;99.90
8408;DHT22;4241;48.452;9.216;2023-07-29T13:38:41;25.40;99.90
8408;DHT22;4241;48.452;9.216;2023-07-29T13:41:08;25.60;99.90
8408;DHT22;4241;48.452;9.216;2023-07-29T13:43:35;25.50;99.90
8408;DHT22;4241;48.452;9.216;2023-07-29T13:46:01;25.30;99.90
8408;DHT22;4241;48.452;9.216;2023-07-29T13:48:30;25.20;99.90
8408;DHT22;4241;48.452;9.216;2023-07-29T13:50:58;25.40;99.90
8408;DHT22;4241;48.452;9.216;2023-07-29T13:53:25;25.20;99.90
8408;DHT22;4241;48.452;9.216;2023-07-29T13:55:52;25.20;99.90
8408;DHT22;4241;48.452;9.216;2023-07-29T13:58:19;25.30;99.90
8408;DHT22;4241;48.452;9.216;2023-07-29T14:00:45;25.40;99.90
8408;DHT22;4241;48.452;9.216;2023-07-29T14:03:12;25.60;99.90
8408;DHT22;4241;48.452;9.216;2023-07-29T14:05:40;25.80;99.90
8408;DHT22;4241;48.452;9.216;2023-07-29T14:08:07;25.80;99.90
8408;DHT22;4241;48.452;9.216;2023-07-29T14:10:34;25.90;99.90
8408;DHT22;4241;48.452;9.216;2023-07-29T14:13:01;25.90;99.90
8408;DHT22;4241;48.452;9.216;2023-07-29T14:15:27;25.70;99.90
8408;DHT22;4241;48.452;9.216;2023-07-29T14:17:54;25.90;99.90
8408;DHT22;4241;48.452;9.216;2023-07-29T14:20:21;26.00;99.90
8408;DHT22;4241;48.452;9.216;2023-07-29T14:22:49;26.10;99.90
8408;DHT22;4241;48.452;9.216;2023-07-29T14:25:16;26.20;99.90
8408;DHT22;4241;48.452;9.216;2023-07-29T14:27:43;26.40;99.90
8408;DHT22;4241;48.452;9.216;2023-07-29T14:30:11;26.40;99.90
8408;DHT22;4241;48.452;9.216;2023-07-29T14:32:37;26.40;99.90
8408;DHT22;4241;48.452;9.216;2023-07-29T14:35:05;26.40;99.90
8408;DHT22;4241;48.452;9.216;2023-07-29T14:37:33;26.40;99.90
8408;DHT22;4241;48.452;9.216;2023-07-29T14:40:01;26.30;99.90
8408;DHT22;4241;48.452;9.216;2023-07-29T14:44:56;25.90;99.90
8408;DHT22;4241;48.452;9.216;2023-07-29T14:47:22;26.20;99.90
8408;DHT22;4241;48.452;9.216;2023-07-29T14:49:49;26.20;99.90
8408;DHT22;4241;48.452;9.216;2023-07-29T14:52:16;26.40;99.90
8408;DHT22;4241;48.452;9.216;2023-07-29T14:54:43;26.30;99.90
8408;DHT22;4241;48.452;9.216;2023-07-29T14:57:11;26.30;99.90
8408;DHT22;4241;48.452;9.216;2023-07-29T14:59:38;26.40;99.90
8408;DHT22;4241;48.452;9.216;2023-07-29T15:02:06;26.30;99.90
8408;DHT22;4241;48.452;9.216;2023-07-29T15:04:32;25.80;99.90
8408;DHT22;4241;48.452;9.216;2023-07-29T15:06:59;25.80;99.90
8408;DHT22;4241;48.452;9.216;2023-07-29T15:09:26;25.40;99.90
8408;DHT22;4241;48.452;9.216;2023-07-29T15:11:53;25.50;99.90
8408;DHT22;4241;48.452;9.216;2023-07-29T15:14:21;25.50;99.90
8408;DHT22;4241;48.452;9.216;2023-07-29T15:16:49;25.40;99.90
8408;DHT22;4241;48.452;9.216;2023-07-29T15:19:16;25.30;99.90
8408;DHT22;4241;48.452;9.216;2023-07-29T15:21:43;25.20;99.90
8408;DHT22;4241;48.452;9.216;2023-07-29T15:24:10;25.10;99.90
8408;DHT22;4241;48.452;9.216;2023-07-29T15:26:44;25.00;99.90
8408;DHT22;4241;48.452;9.216;2023-07-29T15:29:11;25.00;99.90
8408;DHT22;4241;48.452;9.216;2023-07-29T15:31:39;24.30;99.90
8408;DHT22;4241;48.452;9.216;2023-07-29T15:34:06;24.10;99.90
8408;DHT22;4241;48.452;9.216;2023-07-29T15:36:33;24.10;99.90
8408;DHT22;4241;48.452;9.216;2023-07-29T15:39:03;24.40;99.90
8408;DHT22;4241;48.452;9.216;2023-07-29T15:41:31;24.50;99.90
8408;DHT22;4241;48.452;9.216;2023-07-29T15:43:59;24.70;99.90
8408;DHT22;4241;48.452;9.216;2023-07-29T15:46:26;24.80;99.90
8408;DHT22;4241;48.452;9.216;2023-07-29T15:48:54;24.70;99.90
8408;DHT22;4241;48.452;9.216;2023-07-29T15:51:24;24.70;99.90
8408;DHT22;4241;48.452;9.216;2023-07-29T15:53:51;24.60;99.90
8408;DHT22;4241;48.452;9.216;2023-07-29T15:56:18;24.60;99.90
8408;DHT22;4241;48.452;9.216;2023-07-29T15:58:45;24.50;99.90
8408;DHT22;4241;48.452;9.216;2023-07-29T16:01:12;24.30;99.90
8408;DHT22;4241;48.452;9.216;2023-07-29T16:03:39;24.00;99.90
8408;DHT22;4241;48.452;9.216;2023-07-29T16:06:07;23.80;99.90
8408;DHT22;4241;48.452;9.216;2023-07-29T16:08:34;24.10;99.90
8408;DHT22;4241;48.452;9.216;2023-07-29T16:11:01;23.90;99.90
8408;DHT22;4241;48.452;9.216;2023-07-29T16:13:28;23.80;99.90
8408;DHT22;4241;48.452;9.216;2023-07-29T16:15:55;23.80;99.90
8408;DHT22;4241;48.452;9.216;2023-07-29T16:18:23;23.70;99.90
8408;DHT22;4241;48.452;9.216;2023-07-29T16:20:50;23.60;99.90
8408;DHT22;4241;48.452;9.216;2023-07-29T16:23:19;23.50;99.90
8408;DHT22;4241;48.452;9.216;2023-07-29T16:25:46;23.40;99.90
8408;DHT22;4241;48.452;9.216;2023-07-29T16:28:13;23.20;99.90
8408;DHT22;4241;48.452;9.216;2023-07-29T16:33:07;23.00;99.90
8408;DHT22;4241;48.452;9.216;2023-07-29T16:35:34;23.00;99.90
8408;DHT22;4241;48.452;9.216;2023-07-29T16:38:01;22.80;99.90
8408;DHT22;4241;48.452;9.216;2023-07-29T16:40:29;22.70;99.90
8408;DHT22;4241;48.452;9.216;2023-07-29T16:45:23;22.70;99.90
8408;DHT22;4241;48.452;9.216;2023-07-29T16:50:17;22.50;99.90
8408;DHT22;4241;48.452;9.216;2023-07-29T16:52:44;22.60;99.90
8408;DHT22;4241;48.452;9.216;2023-07-29T16:55:11;22.50;99.90
8408;DHT22;4241;48.452;9.216;2023-07-29T16:57:39;22.50;99.90
8408;DHT22;4241;48.452;9.216;2023-07-29T17:00:07;22.30;99.90
8408;DHT22;4241;48.452;9.216;2023-07-29T17:05:01;22.30;99.90
8408;DHT22;4241;48.452;9.216;2023-07-29T17:09:56;22.20;99.90
8408;DHT22;4241;48.452;9.216;2023-07-29T17:14:52;22.10;99.90
8408;DHT22;4241;48.452;9.216;2023-07-29T17:19:45;21.90;99.90
8408;DHT22;4241;48.452;9.216;2023-07-29T17:22:13;21.80;99.90
8408;DHT22;4241;48.452;9.216;2023-07-29T17:27:07;21.90;99.90
8408;DHT22;4241;48.452;9.216;2023-07-29T17:29:35;21.90;99.90
8408;DHT22;4241;48.452;9.216;2023-07-29T17:32:04;21.80;99.90
8408;DHT22;4241;48.452;9.216;2023-07-29T17:34:33;22.00;99.90
8408;DHT22;4241;48.452;9.216;2023-07-29T17:37:00;21.90;99.90
8408;DHT22;4241;48.452;9.216;2023-07-29T17:39:27;21.90;99.90
8408;DHT22;4241;48.452;9.216;2023-07-29T17:44:21;21.80;99.90
8408;DHT22;4241;48.452;9.216;2023-07-29T17:46:48;21.80;99.90
8408;DHT22;4241;48.452;9.216;2023-07-29T17:49:16;21.80;99.90
8408;DHT22;4241;48.452;9.216;2023-07-29T17:51:43;21.70;99.90
8408;DHT22;4241;48.452;9.216;2023-07-29T17:59:04;21.60;99.90
8408;DHT22;4241;48.452;9.216;2023-07-29T18:01:30;21.60;99.90
8408;DHT22;4241;48.452;9.216;2023-07-29T18:03:57;21.70;99.90
8408;DHT22;4241;48.452;9.216;2023-07-29T18:06:25;21.70;99.90
8408;DHT22;4241;48.452;9.216;2023-07-29T18:13:47;21.70;99.90
8408;DHT22;4241;48.452;9.216;2023-07-29T18:18:45;21.80;99.90
8408;DHT22;4241;48.452;9.216;2023-07-29T18:23:41;21.80;99.90
8408;DHT22;4241;48.452;9.216;2023-07-29T18:26:08;21.80;99.90
8408;DHT22;4241;48.452;9.216;2023-07-29T18:28:35;21.50;99.90
8408;DHT22;4241;48.452;9.216;2023-07-29T18:31:01;21.70;99.90
8408;DHT22;4241;48.452;9.216;2023-07-29T18:35:55;21.70;99.90
8408;DHT22;4241;48.452;9.216;2023-07-29T18:38:22;21.80;99.90
8408;DHT22;4241;48.452;9.216;2023-07-29T18:40:50;21.60;99.90
8408;DHT22;4241;48.452;9.216;2023-07-29T18:43:17;21.60;99.90
8408;DHT22;4241;48.452;9.216;2023-07-29T18:45:44;21.70;99.90
8408;DHT22;4241;48.452;9.216;2023-07-29T18:48:11;21.60;99.90
8408;DHT22;4241;48.452;9.216;2023-07-29T18:55:32;21.30;99.90
8408;DHT22;4241;48.452;9.216;2023-07-29T18:58:00;21.20;99.90
8408;DHT22;4241;48.452;9.216;2023-07-29T19:00:27;21.10;99.90
8408;DHT22;4241;48.452;9.216;2023-07-29T19:07:48;20.90;99.90
8408;DHT22;4241;48.452;9.216;2023-07-29T19:12:42;21.00;99.90
8408;DHT22;4241;48.452;9.216;2023-07-29T19:15:12;20.90;99.90
8408;DHT22;4241;48.452;9.216;2023-07-29T19:20:07;20.90;99.90
8408;DHT22;4241;48.452;9.216;2023-07-29T19:25:02;20.80;99.90
8408;DHT22;4241;48.452;9.216;2023-07-29T19:27:28;20.80;99.90
8408;DHT22;4241;48.452;9.216;2023-07-29T19:29:56;20.80;99.90
8408;DHT22;4241;48.452;9.216;2023-07-29T19:32:24;20.80;99.90
8408;DHT22;4241;48.452;9.216;2023-07-29T19:34:52;20.90;99.90
8408;DHT22;4241;48.452;9.216;2023-07-29T19:39:47;20.80;99.90